Millersburg, Iowa
Current Conditions -  °F | °C
As of 4:15 PM on Friday 24 Oct 2014 (Local Time) from KOOA Reporting Station
Overcast Overcast  
Wind Chill: 64°   Ceiling: 1300
Heat Index: 64°   Visibility: 7mi
Dew Point: 59°   Wind: 8mph
Humidity: 85%   Direction: 200°SSW
Pressure: 29.92"   Gusts: NA
Location:  41.57°N, 92.16°W
Report Text: KOOA 242115Z AUTO 20007KT 7SM OVC013 18/15 A2992 RMK AO2 T01750150
Loading
Personal Weather Stations






























Interactive Weather Map
Tropical Storm Tracking
New forecast layout! Learn more

10-Day Weather Forecast

Advertisements
Track Severe Weather on mobile